Time;durP1;ratioP1;P1;durP2;ratioP2;P2;SDS_P1;SDS_P2;PMS_P1;PMS_P2;Temp;Humidity;BMP_temperature;BMP_pressure;BME280_temperature;BME280_humidity;BME280_pressure;Samples;Min_cycle;Max_cycle;Signal;HPM_P1;HPM_P2
2022/03/16 00:00:21;;;;;;;88.23;39.77;;;;;;;5.03;79.48;100783.63;4178229;28;20263;-69
2022/03/16 00:02:48;;;;;;;87.47;41.10;;;;;;;5.01;79.36;100785.53;4180615;28;20309;-71
2022/03/16 00:05:15;;;;;;;85.60;40.53;;;;;;;4.96;79.28;100779.72;4177712;28;20549;-70
2022/03/16 00:07:41;;;;;;;92.03;42.63;;;;;;;4.91;79.85;100780.00;4162900;28;20235;-71
2022/03/16 00:10:09;;;;;;;93.77;43.73;;;;;;;4.92;79.88;100779.06;4193435;28;21303;-72
2022/03/16 00:12:36;;;;;;;93.07;41.90;;;;;;;4.68;80.72;100775.38;4199732;28;20452;-71
2022/03/16 00:15:03;;;;;;;88.07;42.77;;;;;;;4.52;82.18;100775.50;4191374;28;20238;-69
2022/03/16 00:17:30;;;;;;;89.97;42.30;;;;;;;4.58;82.06;100781.25;4195274;28;20317;-69
2022/03/16 00:19:56;;;;;;;87.07;41.20;;;;;;;4.70;80.83;100776.13;4184757;28;20234;-71
2022/03/16 00:22:23;;;;;;;90.77;40.67;;;;;;;4.69;81.26;100763.91;4183197;28;20419;-69
2022/03/16 00:24:50;;;;;;;87.70;41.87;;;;;;;4.75;80.95;100763.50;4190749;28;25854;-68
2022/03/16 00:27:16;;;;;;;91.13;42.33;;;;;;;4.84;80.42;100761.09;4184020;28;20227;-70
2022/03/16 00:29:42;;;;;;;93.10;42.10;;;;;;;4.88;80.18;100764.41;4179269;28;20234;-68
2022/03/16 00:32:09;;;;;;;104.83;45.03;;;;;;;4.77;79.95;100764.25;4206725;28;20232;-70
2022/03/16 00:34:35;;;;;;;94.07;44.43;;;;;;;4.66;80.28;100764.97;4188569;28;20243;-68
2022/03/16 00:37:02;;;;;;;100.10;45.23;;;;;;;4.44;82.11;100754.94;4187849;28;20668;-69
2022/03/16 00:39:29;;;;;;;96.00;44.33;;;;;;;4.48;81.82;100756.44;4201534;28;20228;-70
2022/03/16 00:41:56;;;;;;;111.33;46.90;;;;;;;4.41;81.74;100757.75;4192813;28;21720;-71
2022/03/16 00:44:22;;;;;;;108.70;46.53;;;;;;;4.29;82.58;100772.56;4180019;28;20237;-71
2022/03/16 00:46:49;;;;;;;99.17;44.53;;;;;;;4.39;82.59;100770.19;4197046;28;25463;-68
2022/03/16 00:49:15;;;;;;;91.97;43.63;;;;;;;4.45;81.85;100759.28;4181701;28;20229;-69
2022/03/16 00:51:42;;;;;;;102.17;45.73;;;;;;;4.35;82.15;100750.25;4180317;28;20235;-69
2022/03/16 00:54:09;;;;;;;102.63;45.77;;;;;;;4.34;82.66;100746.75;4205932;28;20278;-70
2022/03/16 00:56:36;;;;;;;101.03;44.77;;;;;;;4.41;81.70;100744.59;4190084;28;20292;-67
2022/03/16 00:59:02;;;;;;;101.97;46.27;;;;;;;4.48;81.31;100745.88;4181602;28;20243;-69
2022/03/16 01:01:29;;;;;;;106.37;47.67;;;;;;;4.40;81.80;100745.50;4185185;28;21798;-71
2022/03/16 01:03:56;;;;;;;104.03;46.17;;;;;;;4.39;81.70;100741.19;4190049;28;21111;-70
2022/03/16 01:06:23;;;;;;;98.73;44.77;;;;;;;4.41;81.14;100740.16;4190468;28;20244;-70
2022/03/16 01:08:49;;;;;;;98.60;43.97;;;;;;;4.53;81.16;100748.22;4188562;28;22620;-70
2022/03/16 01:11:16;;;;;;;104.53;45.77;;;;;;;4.52;81.00;100747.38;4184331;28;20643;-69
2022/03/16 01:13:43;;;;;;;102.73;46.17;;;;;;;4.43;81.48;100743.53;4183798;28;20682;-69
2022/03/16 01:16:09;;;;;;;101.57;45.93;;;;;;;4.48;80.84;100747.69;4201142;28;20231;-71
2022/03/16 01:18:36;;;;;;;96.80;44.23;;;;;;;4.49;80.30;100747.56;4205522;28;21570;-70
2022/03/16 01:21:06;;;;;;;97.93;44.60;;;;;;;4.50;80.63;100759.81;4174123;28;21236;-70
2022/03/16 01:23:34;;;;;;;98.13;44.40;;;;;;;4.54;80.41;100755.19;4171767;28;20369;-71
2022/03/16 01:26:00;;;;;;;95.87;45.17;;;;;;;4.65;79.88;100748.28;4174686;28;20641;-70
2022/03/16 01:28:27;;;;;;;97.73;44.00;;;;;;;4.63;79.50;100750.16;4183375;28;20240;-70
2022/03/16 01:30:53;;;;;;;100.47;42.47;;;;;;;4.62;79.65;100737.94;4192633;28;20248;-72
2022/03/16 01:33:20;;;;;;;98.90;44.43;;;;;;;4.55;80.08;100744.53;4194138;28;21206;-69
2022/03/16 01:35:47;;;;;;;94.03;43.17;;;;;;;4.56;79.36;100751.50;4203530;28;20292;-70
2022/03/16 01:38:14;;;;;;;97.67;42.57;;;;;;;4.54;80.22;100750.78;4179856;28;21276;-70
2022/03/16 01:40:40;;;;;;;99.63;43.60;;;;;;;4.45;80.59;100751.38;4184399;28;20261;-70
2022/03/16 01:43:07;;;;;;;95.00;42.93;;;;;;;4.41;80.96;100755.13;4209203;28;23507;-71
2022/03/16 01:45:34;;;;;;;97.10;43.73;;;;;;;4.26;81.79;100753.44;4202938;28;20795;-70
2022/03/16 01:48:00;;;;;;;86.33;42.43;;;;;;;4.41;80.67;100749.84;4182952;28;20234;-72
2022/03/16 01:50:27;;;;;;;88.43;41.63;;;;;;;4.49;80.32;100755.47;4202334;28;20225;-71
2022/03/16 01:52:53;;;;;;;92.47;40.80;;;;;;;4.52;80.30;100752.66;4182664;28;20230;-72
2022/03/16 01:55:20;;;;;;;89.27;40.67;;;;;;;4.44;80.19;100755.75;4191211;28;20356;-69
2022/03/16 01:57:48;;;;;;;79.97;37.97;;;;;;;4.55;79.64;100757.72;4175444;28;20240;-71
2022/03/16 02:00:15;;;;;;;81.77;39.10;;;;;;;4.37;79.89;100757.09;4173909;28;20282;-71
2022/03/16 02:02:42;;;;;;;91.77;39.77;;;;;;;4.53;80.03;100756.13;4165819;28;20339;-70
2022/03/16 02:05:09;;;;;;;81.80;38.70;;;;;;;4.62;79.70;100748.47;4170659;28;20301;-71
2022/03/16 02:07:37;;;;;;;86.30;39.57;;;;;;;4.60;79.15;100755.63;4175590;28;21911;-70
2022/03/16 02:10:04;;;;;;;87.97;39.63;;;;;;;4.53;79.53;100756.13;4187988;28;20234;-70
2022/03/16 02:12:45;;;;;;;85.07;40.03;;;;;;;4.48;79.88;100751.16;4156135;28;22996;-71
2022/03/16 02:15:12;;;;;;;90.70;40.03;;;;;;;4.49;79.54;100744.94;4179414;28;20292;-70
2022/03/16 02:17:39;;;;;;;89.53;41.33;;;;;;;4.46;79.56;100745.13;4185268;28;20242;-72
2022/03/16 02:20:06;;;;;;;95.43;42.47;;;;;;;4.39;80.15;100746.47;4181484;28;20249;-70
2022/03/16 02:22:36;;;;;;;97.70;44.57;;;;;;;4.34;80.43;100745.94;4192942;28;20358;-69
2022/03/16 02:25:04;;;;;;;101.97;44.93;;;;;;;4.25;81.03;100751.78;4194076;28;20306;-71
2022/03/16 02:27:30;;;;;;;113.27;47.87;;;;;;;4.25;81.14;100738.59;4193065;28;22511;-70
2022/03/16 02:29:57;;;;;;;109.90;46.93;;;;;;;4.32;81.16;100745.16;4192858;28;20235;-70
2022/03/16 02:32:24;;;;;;;112.83;49.63;;;;;;;4.38;81.05;100742.16;4176511;28;20369;-69
2022/03/16 02:34:50;;;;;;;120.30;51.47;;;;;;;4.28;80.70;100741.03;4175960;28;21286;-70
2022/03/16 02:37:16;;;;;;;116.33;52.07;;;;;;;4.22;81.32;100740.47;4188058;28;21674;-69
2022/03/16 02:39:43;;;;;;;119.73;50.90;;;;;;;4.20;81.74;100745.00;4188886;28;20231;-70
2022/03/16 02:42:10;;;;;;;109.43;48.60;;;;;;;4.24;81.44;100753.56;4188905;28;20230;-70
2022/03/16 02:44:36;;;;;;;115.00;52.03;;;;;;;4.20;81.39;100746.78;4173654;28;20256;-70
2022/03/16 02:47:07;;;;;;;111.40;47.97;;;;;;;4.14;82.10;100742.75;4178548;28;20232;-71
2022/03/16 02:49:34;;;;;;;111.43;48.17;;;;;;;4.14;82.23;100745.38;4186351;28;20225;-70
2022/03/16 02:52:08;;;;;;;111.93;46.87;;;;;;;4.16;81.67;100740.84;4184684;28;20229;-71
2022/03/16 02:54:35;;;;;;;104.27;44.20;;;;;;;4.32;81.26;100740.75;4171494;28;20287;-69
2022/03/16 02:57:02;;;;;;;89.80;40.93;;;;;;;4.23;81.40;100734.25;4206064;28;20446;-69
2022/03/16 02:59:29;;;;;;;93.03;41.70;;;;;;;4.19;80.84;100726.66;4169002;28;20239;-69
2022/03/16 03:01:55;;;;;;;91.33;40.10;;;;;;;4.22;80.82;100727.31;4203350;28;20302;-72
2022/03/16 03:04:22;;;;;;;89.13;40.73;;;;;;;4.26;81.38;100727.09;4187598;28;21487;-69
2022/03/16 03:06:48;;;;;;;89.23;39.13;;;;;;;4.29;80.34;100724.31;4194293;28;20940;-69
2022/03/16 03:09:15;;;;;;;95.83;41.27;;;;;;;4.28;80.51;100726.06;4192427;28;22999;-71
2022/03/16 03:11:41;;;;;;;85.27;40.23;;;;;;;4.23;81.18;100722.88;4194456;28;20247;-70
2022/03/16 03:14:08;;;;;;;96.10;41.20;;;;;;;4.35;80.16;100730.00;4199172;28;20536;-70
2022/03/16 03:16:35;;;;;;;89.10;41.57;;;;;;;4.29;80.54;100726.94;4195954;28;20369;-72
2022/03/16 03:19:01;;;;;;;84.77;39.63;;;;;;;4.30;80.37;100728.63;4213160;28;20255;-70
2022/03/16 03:21:28;;;;;;;87.60;39.60;;;;;;;4.33;80.57;100731.91;4205669;28;20279;-72
2022/03/16 03:23:54;;;;;;;92.70;40.50;;;;;;;4.30;80.26;100728.63;4193090;28;20241;-72
2022/03/16 03:26:21;;;;;;;82.33;39.10;;;;;;;4.29;80.20;100725.13;4200336;28;20238;-69
2022/03/16 03:28:48;;;;;;;87.80;40.23;;;;;;;4.39;80.01;100728.03;4193463;28;20229;-68
2022/03/16 03:31:14;;;;;;;93.30;41.00;;;;;;;4.29;80.44;100730.41;4194276;28;20360;-69
2022/03/16 03:33:41;;;;;;;88.00;40.43;;;;;;;4.25;80.69;100728.06;4207707;28;22054;-71
2022/03/16 03:36:07;;;;;;;88.27;40.43;;;;;;;4.28;80.67;100739.25;4208936;28;20480;-72
2022/03/16 03:38:34;;;;;;;91.13;41.63;;;;;;;4.27;80.42;100744.63;4212337;28;20272;-69
2022/03/16 03:41:01;;;;;;;93.90;41.10;;;;;;;4.34;80.71;100751.19;4194076;28;21657;-69
2022/03/16 03:43:27;;;;;;;94.23;42.23;;;;;;;4.30;80.13;100755.78;4199068;28;20242;-71
2022/03/16 03:45:54;;;;;;;93.03;43.50;;;;;;;4.35;80.07;100755.50;4196821;28;20548;-72
2022/03/16 03:48:21;;;;;;;88.67;41.40;;;;;;;4.41;79.95;100752.50;4224827;28;20231;-68
2022/03/16 03:50:48;;;;;;;97.03;43.23;;;;;;;4.25;80.48;100760.50;4207158;28;20228;-68
2022/03/16 03:53:15;;;;;;;97.07;44.10;;;;;;;4.08;81.57;100758.94;4201556;28;20293;-69
2022/03/16 03:55:42;;;;;;;96.73;42.27;;;;;;;4.15;80.84;100747.09;4192993;28;22864;-71
2022/03/16 03:58:08;;;;;;;87.00;41.63;;;;;;;4.15;80.86;100749.72;4199408;28;21239;-70
2022/03/16 04:00:35;;;;;;;92.03;42.90;;;;;;;4.13;81.31;100750.75;4199500;28;22728;-73
2022/03/16 04:03:02;;;;;;;93.10;42.20;;;;;;;4.07;81.35;100745.84;4201247;28;20587;-70
2022/03/16 04:05:29;;;;;;;92.40;42.60;;;;;;;4.11;81.42;100756.09;4198356;28;20232;-70
2022/03/16 04:07:55;;;;;;;83.60;40.27;;;;;;;4.11;81.54;100750.84;4201171;28;20228;-70
2022/03/16 04:10:22;;;;;;;85.67;41.13;;;;;;;4.09;81.46;100759.78;4200869;28;20236;-70
2022/03/16 04:12:49;;;;;;;95.73;41.03;;;;;;;4.06;81.31;100749.44;4197746;28;20237;-69
2022/03/16 04:15:18;;;;;;;83.67;39.90;;;;;;;4.19;81.19;100750.34;4195846;28;20345;-69
2022/03/16 04:17:44;;;;;;;83.80;40.57;;;;;;;4.10;81.18;100751.78;4189658;28;21842;-69
2022/03/16 04:20:11;;;;;;;90.70;40.87;;;;;;;4.08;81.63;100743.13;4207463;28;20237;-70
2022/03/16 04:22:38;;;;;;;89.37;40.80;;;;;;;4.09;81.68;100734.28;4191012;28;20232;-71
2022/03/16 04:25:05;;;;;;;91.10;41.63;;;;;;;4.02;81.57;100735.59;4211937;28;21804;-71
2022/03/16 04:27:31;;;;;;;93.57;40.63;;;;;;;4.01;82.13;100732.13;4201299;28;20237;-70
2022/03/16 04:29:58;;;;;;;89.77;42.77;;;;;;;3.93;82.35;100729.16;4196687;28;20264;-71
2022/03/16 04:32:24;;;;;;;88.33;39.83;;;;;;;3.87;82.49;100728.69;4193556;28;20249;-70
2022/03/16 04:34:52;;;;;;;90.67;41.67;;;;;;;3.79;83.12;100722.09;4206716;28;21852;-70
2022/03/16 04:37:18;;;;;;;93.97;41.30;;;;;;;3.76;83.53;100722.28;4202173;28;20697;-70
2022/03/16 04:39:44;;;;;;;95.03;41.07;;;;;;;3.78;83.90;100725.66;4200367;28;20245;-69
2022/03/16 04:42:12;;;;;;;96.50;42.47;;;;;;;3.82;83.92;100728.97;4195862;28;20710;-69
2022/03/16 04:44:39;;;;;;;93.63;40.63;;;;;;;3.83;84.15;100729.81;4191700;28;20404;-70
2022/03/16 04:47:06;;;;;;;88.43;40.93;;;;;;;3.88;84.02;100738.25;4200758;28;25522;-70
2022/03/16 04:49:32;;;;;;;86.80;40.77;;;;;;;3.78;84.44;100741.44;4191764;28;20342;-70
2022/03/16 04:51:59;;;;;;;86.10;41.67;;;;;;;3.76;84.60;100742.50;4201577;28;21611;-70
2022/03/16 04:54:25;;;;;;;85.60;40.73;;;;;;;3.81;84.81;100746.53;4203248;28;20240;-70
2022/03/16 04:56:52;;;;;;;91.77;40.10;;;;;;;3.84;84.76;100749.91;4200559;28;20243;-70
2022/03/16 04:59:19;;;;;;;88.93;40.07;;;;;;;3.76;84.86;100743.31;4206310;28;20237;-70
2022/03/16 05:01:45;;;;;;;91.57;41.60;;;;;;;3.83;85.17;100745.59;4193324;28;20237;-70
2022/03/16 05:04:14;;;;;;;88.73;41.00;;;;;;;3.84;84.72;100756.03;4195167;28;25660;-70
2022/03/16 05:06:40;;;;;;;84.70;40.20;;;;;;;3.73;85.27;100753.22;4194652;28;20299;-71
2022/03/16 05:09:07;;;;;;;87.60;39.43;;;;;;;3.71;85.42;100755.09;4190633;28;20646;-71
2022/03/16 05:11:35;;;;;;;84.97;40.63;;;;;;;3.75;85.48;100767.13;4193977;28;20340;-71
2022/03/16 05:14:02;;;;;;;89.50;41.60;;;;;;;3.70;85.65;100769.16;4207938;28;20689;-72
2022/03/16 05:16:29;;;;;;;94.43;40.73;;;;;;;3.78;85.89;100766.94;4205735;28;20244;-70
2022/03/16 05:18:55;;;;;;;92.33;40.80;;;;;;;3.70;85.33;100774.44;4202529;28;20440;-70
2022/03/16 05:21:22;;;;;;;89.77;42.10;;;;;;;3.74;85.53;100771.53;4197441;28;20267;-70
2022/03/16 05:23:49;;;;;;;90.17;40.20;;;;;;;3.65;85.89;100772.06;4202711;28;23113;-69
2022/03/16 05:26:15;;;;;;;93.20;39.73;;;;;;;3.66;85.74;100773.78;4203214;28;22225;-71
2022/03/16 05:28:42;;;;;;;87.97;40.73;;;;;;;3.63;85.98;100771.34;4231397;28;20241;-71
2022/03/16 05:31:09;;;;;;;90.90;42.33;;;;;;;3.51;86.64;100767.66;4237983;28;20329;-69
2022/03/16 05:33:39;;;;;;;89.83;42.50;;;;;;;3.55;86.54;100770.94;4252570;28;20344;-70
2022/03/16 05:36:06;;;;;;;91.90;42.30;;;;;;;3.53;86.70;100775.44;4243363;28;25564;-71
2022/03/16 05:38:33;;;;;;;102.00;41.67;;;;;;;3.59;86.75;100773.31;4231645;28;21234;-70
2022/03/16 05:41:00;;;;;;;93.20;41.53;;;;;;;3.49;86.99;100777.44;4228385;28;22252;-71
2022/03/16 05:43:27;;;;;;;101.10;44.30;;;;;;;3.45;87.04;100782.97;4198419;28;22964;-70
2022/03/16 05:45:54;;;;;;;106.50;42.20;;;;;;;3.40;88.01;100777.97;4229857;28;22363;-71
2022/03/16 05:48:21;;;;;;;91.37;41.80;;;;;;;3.43;87.65;100779.56;4225435;28;23222;-70
2022/03/16 05:50:51;;;;;;;95.90;42.47;;;;;;;3.44;87.66;100778.63;4254993;28;20252;-69
2022/03/16 05:53:17;;;;;;;97.23;43.80;;;;;;;3.47;87.29;100789.00;4220444;28;20248;-70
2022/03/16 05:55:44;;;;;;;99.53;44.40;;;;;;;3.54;87.34;100790.31;4212668;28;20296;-69
2022/03/16 05:58:11;;;;;;;97.63;43.90;;;;;;;3.51;87.65;100793.09;4210093;28;20229;-70
2022/03/16 06:00:40;;;;;;;100.80;43.57;;;;;;;3.48;87.42;100795.94;4198179;28;20386;-70
2022/03/16 06:03:07;;;;;;;94.53;42.70;;;;;;;3.49;88.22;100801.13;4210239;28;20525;-69
2022/03/16 06:05:34;;;;;;;94.47;42.77;;;;;;;3.52;87.58;100803.56;4214601;28;20243;-69
2022/03/16 06:08:01;;;;;;;92.63;44.83;;;;;;;3.57;87.92;100803.28;4192175;28;20349;-70
2022/03/16 06:10:28;;;;;;;110.03;46.80;;;;;;;3.62;87.32;100805.63;4205455;28;21393;-68
2022/03/16 06:13:00;;;;;;;105.43;45.67;;;;;;;3.57;87.46;100811.16;4204941;28;20335;-70
2022/03/16 06:15:28;;;;;;;102.23;45.17;;;;;;;3.65;87.52;100813.34;4207819;28;22541;-71
2022/03/16 06:17:56;;;;;;;101.03;45.40;;;;;;;3.70;86.88;100820.03;4208854;28;21876;-70
2022/03/16 06:20:24;;;;;;;98.40;44.80;;;;;;;3.78;86.84;100825.69;4181254;28;21289;-68
2022/03/16 06:22:51;;;;;;;94.37;44.00;;;;;;;3.78;86.41;100830.94;4212438;28;20241;-70
2022/03/16 06:25:17;;;;;;;105.70;45.80;;;;;;;3.78;85.79;100833.59;4221831;28;20356;-68
2022/03/16 06:27:44;;;;;;;105.70;46.17;;;;;;;3.87;85.04;100836.63;4229087;28;20500;-67
2022/03/16 06:30:11;;;;;;;111.43;47.10;;;;;;;3.88;85.02;100838.28;4214078;28;20238;-67
2022/03/16 06:32:38;;;;;;;102.67;45.77;;;;;;;3.92;83.90;100831.91;4202186;28;20303;-67
2022/03/16 06:35:05;;;;;;;103.43;47.10;;;;;;;3.86;83.42;100837.53;4197412;28;21669;-68
2022/03/16 06:37:33;;;;;;;97.23;44.80;;;;;;;3.98;82.96;100839.41;4200326;28;20296;-68
2022/03/16 06:39:59;;;;;;;100.23;47.40;;;;;;;4.06;82.21;100841.63;4205612;28;20240;-66
2022/03/16 06:42:26;;;;;;;103.77;47.73;;;;;;;4.15;81.99;100855.06;4179514;28;20685;-68
2022/03/16 06:44:52;;;;;;;103.70;47.00;;;;;;;4.22;81.36;100852.91;4209476;28;20738;-68
2022/03/16 06:47:19;;;;;;;103.63;46.60;;;;;;;4.29;80.25;100858.66;4215993;28;20240;-67
2022/03/16 06:49:45;;;;;;;92.93;44.10;;;;;;;4.39;79.79;100859.78;4198816;28;21368;-67
2022/03/16 06:52:12;;;;;;;105.10;47.20;;;;;;;4.37;79.43;100859.00;4231799;28;20309;-67
2022/03/16 06:54:39;;;;;;;112.80;46.27;;;;;;;4.42;78.60;100859.56;4197443;28;22595;-67
2022/03/16 06:57:06;;;;;;;103.77;46.70;;;;;;;4.46;77.51;100862.88;4197527;28;20241;-67
2022/03/16 06:59:52;;;;;;;100.60;44.97;;;;;;;4.50;77.67;100864.38;4185540;28;20261;-69
2022/03/16 07:02:19;;;;;;;98.97;45.30;;;;;;;4.54;77.75;100860.59;4201215;28;20229;-70
2022/03/16 07:04:45;;;;;;;97.23;46.97;;;;;;;4.64;77.46;100873.13;4216596;28;20231;-68
2022/03/16 07:07:13;;;;;;;96.83;46.40;;;;;;;4.81;77.00;100868.56;4182559;28;20230;-69
2022/03/16 07:09:40;;;;;;;102.40;46.43;;;;;;;4.76;76.27;100868.03;4190566;28;20252;-70
2022/03/16 07:12:07;;;;;;;103.87;45.37;;;;;;;4.92;75.71;100870.53;4214673;28;20247;-70
2022/03/16 07:14:34;;;;;;;92.00;43.43;;;;;;;4.99;75.44;100867.41;4229022;28;22803;-69
2022/03/16 07:17:02;;;;;;;97.37;43.67;;;;;;;5.13;75.15;100869.16;4220896;28;20232;-68
2022/03/16 07:19:29;;;;;;;96.17;44.63;;;;;;;5.20;74.50;100869.59;4219665;28;20229;-68
2022/03/16 07:21:58;;;;;;;110.50;47.37;;;;;;;5.09;74.29;100870.28;4204913;28;22397;-68
2022/03/16 07:24:25;;;;;;;100.03;45.43;;;;;;;5.02;74.66;100883.03;4209642;28;20241;-68
2022/03/16 07:26:53;;;;;;;94.20;44.57;;;;;;;5.19;73.57;100873.16;4206720;28;21140;-68
2022/03/16 07:29:20;;;;;;;94.70;45.07;;;;;;;5.20;73.67;100880.16;4192038;28;20236;-67
2022/03/16 07:31:46;;;;;;;89.07;44.30;;;;;;;5.41;73.55;100878.75;4225138;28;21202;-69
2022/03/16 07:34:17;;;;;;;94.70;44.10;;;;;;;5.74;71.83;100873.97;4230566;28;23792;-68
2022/03/16 07:36:43;;;;;;;95.37;44.87;;;;;;;6.17;69.57;100886.94;4200716;28;21707;-69
2022/03/16 07:39:11;;;;;;;88.57;44.20;;;;;;;6.45;68.20;100883.22;4194995;28;21659;-68
2022/03/16 07:41:38;;;;;;;92.20;44.47;;;;;;;7.08;66.37;100889.31;4220580;28;20301;-67
2022/03/16 07:44:05;;;;;;;94.87;43.23;;;;;;;7.35;63.21;100894.38;4271170;28;20394;-69
2022/03/16 07:46:32;;;;;;;91.93;43.50;;;;;;;7.29;62.23;100889.56;4282119;28;21347;-68
2022/03/16 07:48:59;;;;;;;88.93;42.97;;;;;;;7.05;62.37;100887.75;4270037;28;20239;-67
2022/03/16 07:51:25;;;;;;;96.23;42.97;;;;;;;6.94;61.89;100898.25;4235001;28;20224;-67
2022/03/16 07:53:52;;;;;;;89.80;42.23;;;;;;;7.22;61.17;100901.56;4278322;28;20228;-69
2022/03/16 07:56:19;;;;;;;93.93;41.17;;;;;;;7.12;60.52;100906.69;4236271;28;20314;-69
2022/03/16 07:58:46;;;;;;;89.53;41.90;;;;;;;6.88;60.27;100906.63;4239626;28;20237;-68
2022/03/16 08:01:14;;;;;;;88.77;42.17;;;;;;;6.87;60.56;100900.50;4298080;28;20296;-67
2022/03/16 08:03:41;;;;;;;91.83;42.00;;;;;;;7.05;61.04;100895.69;4282951;28;21553;-70
2022/03/16 08:06:07;;;;;;;92.03;41.50;;;;;;;7.07;60.00;100901.72;4257601;28;20237;-69
2022/03/16 08:08:39;;;;;;;92.33;41.67;;;;;;;6.97;59.95;100904.16;4219690;28;20310;-69
2022/03/16 08:11:06;;;;;;;93.23;40.80;;;;;;;7.15;58.77;100912.56;4203649;28;20379;-69
2022/03/16 08:13:34;;;;;;;87.07;40.77;;;;;;;7.35;58.76;100910.28;4239671;28;20306;-67
2022/03/16 08:16:01;;;;;;;92.63;40.57;;;;;;;7.69;57.73;100905.13;4231196;28;20687;-68
2022/03/16 08:18:29;;;;;;;88.60;41.00;;;;;;;8.13;56.65;100915.03;4207555;28;20932;-69
2022/03/16 08:20:56;;;;;;;84.13;39.50;;;;;;;8.22;55.03;100919.63;4219650;28;20290;-68
2022/03/16 08:23:23;;;;;;;87.10;42.27;;;;;;;8.32;54.38;100917.09;4238705;28;20228;-67
2022/03/16 08:25:52;;;;;;;89.50;40.67;;;;;;;8.16;54.26;100927.19;4240287;28;20224;-69
2022/03/16 08:28:19;;;;;;;92.70;41.53;;;;;;;7.83;55.14;100919.03;4236448;28;20228;-69
2022/03/16 08:30:45;;;;;;;91.67;41.87;;;;;;;7.67;55.17;100922.94;4243584;28;22755;-70
2022/03/16 08:33:12;;;;;;;82.43;40.03;;;;;;;7.75;55.39;100921.44;4234312;28;20233;-67
2022/03/16 08:35:39;;;;;;;84.63;39.80;;;;;;;8.28;54.19;100928.91;4221184;28;21032;-67
2022/03/16 08:38:06;;;;;;;83.63;40.47;;;;;;;8.70;51.90;100931.03;4211548;28;20244;-67
2022/03/16 08:40:32;;;;;;;81.47;39.43;;;;;;;9.08;50.73;100933.28;4246433;28;20226;-67
2022/03/16 08:42:59;;;;;;;84.90;41.20;;;;;;;8.98;50.30;100935.00;4181339;28;20237;-68
2022/03/16 08:45:26;;;;;;;90.67;40.07;;;;;;;8.92;50.12;100939.00;4212706;28;20256;-68
2022/03/16 08:47:53;;;;;;;74.90;38.77;;;;;;;8.55;50.44;100941.88;4203478;28;20282;-68
2022/03/16 08:50:19;;;;;;;81.40;39.17;;;;;;;8.37;50.56;100941.44;4208114;28;22444;-68
2022/03/16 08:52:47;;;;;;;85.40;41.33;;;;;;;7.92;52.39;100933.41;4228512;28;20303;-69
2022/03/16 08:55:15;;;;;;;94.37;39.63;;;;;;;7.76;52.81;100936.34;4193921;28;20221;-68
2022/03/16 08:57:45;;;;;;;89.93;41.97;;;;;;;7.78;51.97;100941.53;4210932;28;20572;-68
2022/03/16 09:00:15;;;;;;;96.30;40.67;;;;;;;7.64;52.95;100939.06;4222184;28;20386;-67
2022/03/16 09:02:42;;;;;;;94.57;40.37;;;;;;;7.68;52.73;100936.09;4230703;28;20224;-68
2022/03/16 09:05:10;;;;;;;86.10;40.40;;;;;;;7.72;51.80;100942.81;4214615;28;20816;-70
2022/03/16 09:07:38;;;;;;;83.63;39.70;;;;;;;7.88;52.04;100947.84;4257328;28;21814;-68
2022/03/16 09:10:06;;;;;;;91.63;40.57;;;;;;;7.74;52.47;100950.66;4217720;28;20275;-67
2022/03/16 09:12:32;;;;;;;91.40;40.20;;;;;;;7.83;52.36;100950.00;4217717;28;20245;-68
2022/03/16 09:14:59;;;;;;;90.23;41.67;;;;;;;7.98;51.26;100951.50;4227108;28;21573;-70
2022/03/16 09:17:26;;;;;;;92.37;40.37;;;;;;;8.08;50.68;100958.72;4213973;28;20238;-67
2022/03/16 09:19:53;;;;;;;81.87;40.10;;;;;;;8.18;50.06;100965.03;4222388;28;20304;-67
2022/03/16 09:22:20;;;;;;;84.70;41.00;;;;;;;8.22;49.66;100963.84;4206105;28;25572;-67
2022/03/16 09:24:50;;;;;;;81.53;41.50;;;;;;;8.28;49.98;100971.31;4218141;28;20254;-68
2022/03/16 09:27:17;;;;;;;87.00;40.37;;;;;;;8.45;49.54;100965.63;4218299;28;20276;-69
2022/03/16 09:29:47;;;;;;;84.80;40.07;;;;;;;9.01;48.38;100980.72;4242354;28;20342;-68
2022/03/16 09:32:18;;;;;;;83.83;40.03;;;;;;;9.01;46.89;100986.03;4209941;28;23880;-70
2022/03/16 09:34:51;;;;;;;74.03;38.47;;;;;;;9.39;46.62;100978.59;4251781;28;20964;-70
2022/03/16 09:37:19;;;;;;;75.27;38.37;;;;;;;9.47;45.69;100981.50;4238493;28;21709;-69
2022/03/16 09:39:46;;;;;;;81.47;38.97;;;;;;;9.52;45.40;100996.09;4262393;28;26057;-69
2022/03/16 09:42:14;;;;;;;83.33;37.80;;;;;;;9.57;44.86;100993.06;4241869;28;20343;-69
2022/03/16 09:44:46;;;;;;;78.83;38.40;;;;;;;9.51;44.75;100994.41;4285440;28;20322;-70
2022/03/16 09:47:17;;;;;;;75.60;37.57;;;;;;;9.41;44.47;100998.78;4272333;28;20230;-71
2022/03/16 09:49:45;;;;;;;74.07;36.77;;;;;;;9.73;44.93;100998.81;4238027;28;20303;-69
2022/03/16 09:52:11;;;;;;;76.80;37.43;;;;;;;10.24;43.22;101007.09;4293054;28;21813;-69
2022/03/16 09:54:38;;;;;;;81.03;36.20;;;;;;;10.18;42.90;101004.94;4238206;28;21415;-70
2022/03/16 09:57:05;;;;;;;75.30;37.10;;;;;;;10.24;42.70;101007.09;4219710;28;20228;-69
2022/03/16 09:59:32;;;;;;;78.97;37.50;;;;;;;10.39;42.97;101000.47;4217882;28;21506;-69
2022/03/16 10:02:04;;;;;;;68.40;35.20;;;;;;;10.27;43.14;101002.34;4226522;28;20228;-68
2022/03/16 10:04:33;;;;;;;72.17;35.30;;;;;;;10.43;43.02;100999.25;4215143;28;21246;-67
2022/03/16 10:07:01;;;;;;;76.17;34.80;;;;;;;10.69;43.19;101006.84;4210759;28;20419;-70
2022/03/16 10:15:10;;;;;;;67.80;33.17;;;;;;;10.83;42.88;101009.16;4235119;28;20240;-73
2022/03/16 10:17:44;;;;;;;59.37;30.70;;;;;;;10.72;44.75;101012.75;4220728;28;20279;-70
2022/03/16 10:20:17;;;;;;;56.07;30.57;;;;;;;10.90;44.80;101012.97;4209139;28;21306;-69
2022/03/16 10:22:52;;;;;;;61.70;30.73;;;;;;;11.18;44.39;101024.72;4226214;28;20999;-69
2022/03/16 10:25:19;;;;;;;58.93;31.80;;;;;;;11.34;43.81;101021.56;4194874;28;20650;-71
2022/03/16 10:27:46;;;;;;;56.03;30.07;;;;;;;11.44;44.28;101028.75;4205274;28;20233;-72
2022/03/16 10:30:13;;;;;;;58.40;30.17;;;;;;;11.23;43.41;101024.31;4196867;28;20232;-71
2022/03/16 10:32:52;;;;;;;59.13;29.60;;;;;;;11.58;43.64;101023.84;4208997;28;20289;-69
2022/03/16 10:35:19;;;;;;;57.70;30.50;;;;;;;11.24;44.68;101031.34;4181615;28;20236;-71
2022/03/16 10:37:47;;;;;;;55.30;27.07;;;;;;;11.19;45.55;101031.75;4207751;28;21270;-54
2022/03/16 10:40:19;;;;;;;50.13;26.87;;;;;;;11.58;45.61;101036.34;4229491;28;21308;-70
2022/03/16 10:48:22;;;;;;;49.50;26.03;;;;;;;11.82;43.41;101038.63;4222371;28;20241;-72
2022/03/16 10:50:56;;;;;;;47.20;24.97;;;;;;;11.91;42.76;101053.00;4196664;28;20229;-70
2022/03/16 10:53:29;;;;;;;52.80;27.20;;;;;;;11.85;43.35;101054.38;4218395;28;20235;-70
2022/03/16 10:55:57;;;;;;;46.93;25.10;;;;;;;12.13;42.21;101046.59;4224993;28;20284;-72
2022/03/16 10:58:24;;;;;;;52.93;26.20;;;;;;;12.11;41.93;101062.72;4182075;28;21253;-80
2022/03/16 11:00:51;;;;;;;56.53;27.87;;;;;;;12.14;42.48;101057.09;4221216;28;23048;-71
2022/03/16 11:03:22;;;;;;;57.37;27.30;;;;;;;12.39;41.13;101053.03;4215549;28;20233;-70
2022/03/16 11:05:49;;;;;;;52.43;25.63;;;;;;;12.32;41.13;101046.56;4204074;28;22842;-70
2022/03/16 11:08:15;;;;;;;49.47;26.97;;;;;;;12.23;41.80;101058.09;4191774;28;20254;-71
2022/03/16 11:10:43;;;;;;;57.43;26.43;;;;;;;12.20;41.20;101059.22;4219012;28;22105;-71
2022/03/16 11:13:29;;;;;;;47.83;25.53;;;;;;;12.51;41.53;101050.22;4227726;28;20332;-73
2022/03/16 11:15:58;;;;;;;51.97;26.50;;;;;;;13.12;40.70;101062.28;4199661;28;20227;-71
2022/03/16 11:18:25;;;;;;;52.17;26.40;;;;;;;12.94;39.70;101057.69;4231572;28;20309;-70
2022/03/16 11:20:58;;;;;;;48.60;26.33;;;;;;;13.00;39.61;101057.13;4227783;28;21637;-71
2022/03/16 11:26:44;;;;;;;48.87;26.57;;;;;;;12.36;41.24;101052.44;4244550;28;20232;-70
2022/03/16 11:29:52;;;;;;;47.67;25.97;;;;;;;12.44;41.12;101060.59;4256084;28;21150;-70